Time;durP1;ratioP1;P1;durP2;ratioP2;P2;SDS_P1;SDS_P2;PMS_P1;PMS_P2;Temp;Humidity;BMP_temperature;BMP_pressure;BME280_temperature;BME280_humidity;BME280_pressure;Samples;Min_cycle;Max_cycle;Signal;HPM_P1;HPM_P2
2023/03/03 00:01:04;;;;;;;62.42;15.75;;;3.60;99.90;;;;;;6064978;23;95398;-73
2023/03/03 00:03:31;;;;;;;43.08;15.70;;;3.50;99.90;;;;;;6065627;23;92885;-73
2023/03/03 00:05:59;;;;;;;61.38;14.90;;;3.40;99.90;;;;;;6039467;23;92493;-73
2023/03/03 00:08:26;;;;;;;89.88;18.73;;;3.40;99.90;;;;;;6065342;23;93182;-73
2023/03/03 00:10:54;;;;;;;50.65;17.13;;;3.40;99.90;;;;;;6063913;23;95682;-73
2023/03/03 00:13:24;;;;;;;54.30;13.80;;;3.40;99.90;;;;;;6088332;23;92396;-73
2023/03/03 00:15:52;;;;;;;36.88;13.70;;;3.40;99.90;;;;;;6066014;23;91740;-74
2023/03/03 00:18:35;;;;;;;35.30;13.05;;;3.30;99.90;;;;;;6015608;23;95650;-73
2023/03/03 00:21:28;;;;;;;35.35;14.43;;;3.30;99.90;;;;;;6039933;23;92802;-74
2023/03/03 00:24:15;;;;;;;182.50;20.88;;;3.20;99.90;;;;;;6038326;23;94856;-74
2023/03/03 00:27:25;;;;;;;75.35;15.75;;;3.30;99.90;;;;;;6039153;23;92445;-73
2023/03/03 00:29:54;;;;;;;60.75;15.60;;;3.20;99.90;;;;;;6039663;23;95696;-73
2023/03/03 00:32:21;;;;;;;138.20;17.65;;;3.20;99.90;;;;;;6039181;23;94213;-74
2023/03/03 00:34:50;;;;;;;191.98;20.60;;;3.20;99.90;;;;;;6039852;23;92379;-74
2023/03/03 00:37:33;;;;;;;103.15;19.73;;;3.30;99.90;;;;;;6039893;23;92412;-73
2023/03/03 00:40:35;;;;;;;82.88;16.88;;;3.30;99.90;;;;;;6065436;23;93181;-73
2023/03/03 00:43:34;;;;;;;189.43;22.27;;;3.30;99.90;;;;;;6065371;23;93074;-73
2023/03/03 00:46:02;;;;;;;165.77;18.92;;;3.30;99.90;;;;;;6039545;23;92379;-73
2023/03/03 00:48:35;;;;;;;172.52;20.38;;;3.30;99.90;;;;;;6065225;23;92440;-73
2023/03/03 00:51:28;;;;;;;335.00;28.73;;;3.40;99.90;;;;;;6038282;23;95453;-73
2023/03/03 00:53:57;;;;;;;93.50;18.63;;;3.40;99.90;;;;;;6039675;23;95421;-73
2023/03/03 00:56:24;;;;;;;249.93;24.25;;;3.30;99.90;;;;;;6065391;23;92495;-73
2023/03/03 00:58:52;;;;;;;157.27;19.02;;;3.40;99.90;;;;;;6039215;23;92418;-73
2023/03/03 01:01:21;;;;;;;189.20;22.27;;;3.40;99.90;;;;;;6038945;23;95860;-73
2023/03/03 01:03:51;;;;;;;223.70;24.70;;;3.40;99.90;;;;;;6038715;23;97043;-73
2023/03/03 01:06:18;;;;;;;289.85;25.42;;;3.40;99.90;;;;;;6039295;23;92441;-73
2023/03/03 01:08:44;;;;;;;152.60;21.58;;;3.50;99.90;;;;;;6064068;23;91701;-73
2023/03/03 01:11:18;;;;;;;244.70;23.88;;;3.50;99.90;;;;;;6065154;23;93230;-73
2023/03/03 01:13:48;;;;;;;124.60;21.08;;;3.50;99.90;;;;;;6064912;23;92931;-74
2023/03/03 01:16:15;;;;;;;275.35;28.05;;;3.50;99.90;;;;;;6061850;23;94844;-73
2023/03/03 01:18:43;;;;;;;224.82;24.70;;;3.50;99.90;;;;;;6015140;23;92409;-73
2023/03/03 01:21:10;;;;;;;125.45;20.98;;;3.60;99.90;;;;;;6064999;23;92780;-73
2023/03/03 01:23:38;;;;;;;137.77;19.83;;;3.60;99.90;;;;;;6063147;23;95385;-73
2023/03/03 01:26:05;;;;;;;212.27;21.73;;;3.60;99.90;;;;;;6039366;23;92432;-73
2023/03/03 01:28:33;;;;;;;198.63;23.50;;;3.60;99.90;;;;;;6065323;23;92829;-74
2023/03/03 01:31:04;;;;;;;225.23;24.95;;;3.60;99.90;;;;;;6087637;23;95725;-74
2023/03/03 01:33:33;;;;;;;235.38;25.20;;;3.70;99.90;;;;;;6065332;23;91903;-74
2023/03/03 01:36:01;;;;;;;171.10;21.63;;;3.70;99.90;;;;;;6087799;23;92362;-74
2023/03/03 01:38:28;;;;;;;151.48;22.10;;;3.70;99.90;;;;;;6038960;23;94014;-74
2023/03/03 01:40:58;;;;;;;203.73;24.90;;;3.70;99.90;;;;;;6013787;23;96094;-74
2023/03/03 01:43:30;;;;;;;156.48;22.13;;;3.80;99.90;;;;;;6062836;23;97927;-74
2023/03/03 01:45:57;;;;;;;227.88;25.13;;;3.80;99.90;;;;;;6038711;23;92446;-74
2023/03/03 01:48:35;;;;;;;103.95;19.30;;;3.80;99.90;;;;;;6039030;23;92462;-73
2023/03/03 01:51:18;;;;;;;138.35;20.13;;;3.90;99.90;;;;;;6063222;23;95581;-74
2023/03/03 01:53:50;;;;;;;101.03;20.38;;;3.80;99.90;;;;;;6038799;23;95564;-74
2023/03/03 01:56:17;;;;;;;96.95;18.40;;;3.80;99.90;;;;;;6039762;23;92507;-74
2023/03/03 01:59:06;;;;;;;95.32;19.60;;;3.80;99.90;;;;;;6040452;23;91681;-74
2023/03/03 02:01:33;;;;;;;140.60;20.70;;;3.90;99.90;;;;;;6040584;23;92870;-74
2023/03/03 02:04:00;;;;;;;97.28;18.95;;;3.90;99.90;;;;;;6065894;23;92592;-74
2023/03/03 02:06:38;;;;;;;151.18;19.90;;;3.90;99.90;;;;;;6064742;23;94816;-74
2023/03/03 02:09:43;;;;;;;139.15;20.02;;;3.90;99.90;;;;;;6040432;23;92824;-74
2023/03/03 02:12:12;;;;;;;139.77;21.55;;;4.00;99.90;;;;;;6040152;23;95658;-74
2023/03/03 02:14:39;;;;;;;223.93;24.45;;;4.00;99.90;;;;;;6039719;23;95778;-73
2023/03/03 02:17:06;;;;;;;162.35;19.08;;;4.00;99.90;;;;;;6040278;23;92404;-73
2023/03/03 02:20:02;;;;;;;186.73;23.15;;;4.00;99.90;;;;;;6040371;23;92966;-73
2023/03/03 02:22:52;;;;;;;156.73;20.10;;;4.00;99.90;;;;;;6040083;23;95748;-74
2023/03/03 02:25:48;;;;;;;154.13;19.00;;;3.90;99.90;;;;;;6089447;23;95424;-73
2023/03/03 02:28:15;;;;;;;181.55;18.83;;;3.80;99.90;;;;;;6034203;23;92408;-74
2023/03/03 02:30:43;;;;;;;169.45;21.98;;;3.70;99.90;;;;;;6039839;23;92518;-74
2023/03/03 02:33:10;;;;;;;400.73;31.10;;;3.80;99.90;;;;;;6038499;23;96703;-73
2023/03/03 02:35:38;;;;;;;398.45;34.00;;;3.70;99.90;;;;;;6040381;23;95594;-74
2023/03/03 02:38:19;;;;;;;135.43;18.92;;;3.80;99.90;;;;;;6064154;23;92506;-74
2023/03/03 02:40:58;;;;;;;133.45;23.40;;;3.90;99.90;;;;;;6040193;23;92393;-73
2023/03/03 02:43:32;;;;;;;236.10;26.13;;;3.90;99.90;;;;;;6040382;23;94197;-73
2023/03/03 02:45:59;;;;;;;;;;;3.90;99.90;;;;;;6040155;23;95670;-74
2023/03/03 02:48:26;;;;;;;126.50;19.80;;;3.80;99.90;;;;;;6091032;23;92494;-73
2023/03/03 02:50:53;;;;;;;161.48;20.20;;;3.80;99.90;;;;;;6064811;23;91658;-74
2023/03/03 02:53:20;;;;;;;135.60;19.20;;;3.90;99.90;;;;;;6016375;23;93193;-73
2023/03/03 02:55:47;;;;;;;130.02;19.02;;;3.90;99.90;;;;;;6088439;23;95526;-74
2023/03/03 02:58:14;;;;;;;100.82;20.13;;;3.90;99.90;;;;;;6014441;23;94893;-74
2023/03/03 03:00:41;;;;;;;173.30;20.73;;;3.90;99.90;;;;;;6016038;23;93033;-73
2023/03/03 03:03:08;;;;;;;385.98;34.15;;;3.90;99.90;;;;;;6039496;23;95622;-74
2023/03/03 03:05:37;;;;;;;166.43;22.60;;;3.90;99.90;;;;;;6039595;23;95435;-73
2023/03/03 03:08:04;;;;;;;169.82;21.85;;;3.90;99.90;;;;;;6039276;23;92499;-74
2023/03/03 03:10:31;;;;;;;156.07;21.02;;;3.90;99.90;;;;;;6040422;23;92480;-73
2023/03/03 03:12:58;;;;;;;168.75;22.30;;;3.90;99.90;;;;;;6039519;23;95774;-73
2023/03/03 03:15:26;;;;;;;248.57;26.00;;;3.90;99.90;;;;;;6040149;23;95515;-73
2023/03/03 03:17:52;;;;;;;179.88;22.25;;;3.90;99.90;;;;;;6039833;23;92425;-73
2023/03/03 03:20:20;;;;;;;165.52;22.08;;;4.00;99.90;;;;;;6040064;23;92537;-73
2023/03/03 03:22:46;;;;;;;186.13;22.95;;;4.00;99.90;;;;;;6062519;23;100983;-74
2023/03/03 03:25:13;;;;;;;200.27;24.00;;;4.00;99.90;;;;;;6039637;23;97912;-73
2023/03/03 03:27:42;;;;;;;229.75;26.23;;;4.00;99.90;;;;;;6040219;23;92476;-74
2023/03/03 03:30:10;;;;;;;330.20;32.15;;;4.00;99.90;;;;;;6088419;23;92958;-73
2023/03/03 03:32:38;;;;;;;215.75;27.50;;;4.00;99.90;;;;;;6039495;23;95493;-74
2023/03/03 03:35:05;;;;;;;173.43;23.88;;;4.00;99.90;;;;;;6039434;23;95347;-74
2023/03/03 03:37:33;;;;;;;181.95;22.73;;;4.00;99.90;;;;;;6064117;23;92397;-73
2023/03/03 03:40:00;;;;;;;167.32;21.13;;;4.00;99.90;;;;;;6039874;23;91764;-73
2023/03/03 03:42:28;;;;;;;165.50;20.30;;;3.90;99.90;;;;;;6040097;23;95906;-73
2023/03/03 03:44:56;;;;;;;164.93;19.40;;;4.00;99.90;;;;;;6039421;23;95595;-73
2023/03/03 03:47:24;;;;;;;131.23;18.70;;;4.00;99.90;;;;;;6038159;23;95050;-73
2023/03/03 03:49:51;;;;;;;68.82;11.25;;;4.00;99.90;;;;;;6039882;23;93048;-74
2023/03/03 03:52:19;;;;;;;116.78;16.42;;;3.90;99.90;;;;;;6039446;23;95460;-74
2023/03/03 03:54:46;;;;;;;106.30;15.98;;;3.90;99.90;;;;;;6065566;23;92981;-73
2023/03/03 03:57:13;;;;;;;122.18;17.35;;;3.90;99.90;;;;;;6039570;23;92386;-73
2023/03/03 03:59:41;;;;;;;132.93;16.48;;;3.90;99.90;;;;;;6039461;23;92484;-73
2023/03/03 04:02:08;;;;;;;294.80;25.13;;;3.90;99.90;;;;;;6039736;23;93053;-73
2023/03/03 04:04:36;;;;;;;118.95;17.70;;;3.90;99.90;;;;;;6088991;23;94358;-73
2023/03/03 04:07:03;;;;;;;153.70;16.65;;;3.90;99.90;;;;;;6039281;23;92422;-73
2023/03/03 04:09:31;;;;;;;106.50;17.10;;;3.90;99.90;;;;;;6039389;23;92471;-73
2023/03/03 04:11:58;;;;;;;112.38;16.40;;;3.90;99.90;;;;;;6037818;23;98277;-73
2023/03/03 04:14:26;;;;;;;90.88;14.20;;;3.90;99.90;;;;;;6039148;23;97564;-73
2023/03/03 04:16:53;;;;;;;132.40;17.85;;;3.90;99.90;;;;;;6039622;23;92392;-73
2023/03/03 04:19:20;;;;;;;94.05;14.43;;;3.90;99.90;;;;;;6087692;23;92823;-73
2023/03/03 04:21:50;;;;;;;148.50;16.00;;;3.90;99.90;;;;;;6039329;23;95771;-73
2023/03/03 04:24:18;;;;;;;141.60;16.77;;;3.90;99.90;;;;;;6039148;23;95422;-73
2023/03/03 04:26:47;;;;;;;223.88;20.23;;;3.90;99.90;;;;;;6063957;23;92999;-73
2023/03/03 04:29:15;;;;;;;137.18;17.55;;;3.90;99.90;;;;;;6039541;23;91696;-73
2023/03/03 04:31:43;;;;;;;108.88;16.52;;;4.00;99.90;;;;;;6039341;23;96017;-74
2023/03/03 04:34:10;;;;;;;128.38;18.02;;;4.00;99.90;;;;;;6015071;23;94010;-74
2023/03/03 04:36:37;;;;;;;240.38;21.25;;;4.00;99.90;;;;;;6037970;23;94911;-73
2023/03/03 04:39:05;;;;;;;175.60;18.08;;;4.10;99.90;;;;;;6039491;23;92424;-73
2023/03/03 04:41:32;;;;;;;108.97;15.15;;;4.10;99.90;;;;;;6039445;23;95869;-73
2023/03/03 04:43:59;;;;;;;97.63;15.10;;;4.10;99.90;;;;;;6016189;23;93008;-73
2023/03/03 04:46:26;;;;;;;219.75;19.60;;;4.10;99.90;;;;;;6088558;23;92477;-73
2023/03/03 04:48:54;;;;;;;157.93;16.40;;;4.00;99.90;;;;;;6015653;23;92986;-73
2023/03/03 04:51:22;;;;;;;117.07;16.42;;;4.10;99.90;;;;;;6087875;23;94581;-73
2023/03/03 04:53:49;;;;;;;130.35;18.52;;;4.10;99.90;;;;;;6039616;23;95640;-73
2023/03/03 04:56:16;;;;;;;244.57;23.50;;;4.10;99.90;;;;;;6039179;23;93000;-74
2023/03/03 04:58:44;;;;;;;220.48;20.55;;;4.10;99.90;;;;;;6063697;23;92486;-74
2023/03/03 05:01:14;;;;;;;328.20;26.30;;;4.10;99.90;;;;;;6037330;23;97844;-74
2023/03/03 05:03:41;;;;;;;113.13;23.00;;;4.10;99.90;;;;;;6063795;23;97706;-73
2023/03/03 05:06:08;;;;;;;194.40;22.30;;;4.10;99.90;;;;;;6039377;23;92509;-73
2023/03/03 05:08:36;;;;;;;114.38;18.65;;;4.10;99.90;;;;;;6039569;23;96617;-74
2023/03/03 05:11:03;;;;;;;106.95;17.80;;;4.20;99.90;;;;;;6065149;23;93194;-74
2023/03/03 05:13:30;;;;;;;130.60;20.38;;;4.20;99.90;;;;;;6065267;23;92855;-74
2023/03/03 05:15:57;;;;;;;134.55;21.90;;;4.20;99.90;;;;;;6039243;23;92928;-74
2023/03/03 05:18:25;;;;;;;182.93;21.15;;;4.30;99.90;;;;;;6039634;23;91718;-74
2023/03/03 05:20:52;;;;;;;152.18;20.23;;;4.30;99.90;;;;;;6038943;23;94720;-74
2023/03/03 05:23:20;;;;;;;155.68;20.65;;;4.30;99.90;;;;;;6038844;23;96238;-74
2023/03/03 05:25:48;;;;;;;149.70;20.63;;;4.30;99.90;;;;;;6037426;23;94892;-74
2023/03/03 05:28:16;;;;;;;141.68;21.02;;;4.30;99.90;;;;;;6064301;23;92424;-74
2023/03/03 05:30:43;;;;;;;142.77;19.35;;;4.30;99.90;;;;;;6039739;23;96119;-74
2023/03/03 05:33:13;;;;;;;186.25;20.80;;;4.30;99.90;;;;;;6039781;23;95957;-74
2023/03/03 05:35:41;;;;;;;151.57;19.30;;;4.30;99.90;;;;;;6040454;23;92567;-74
2023/03/03 05:38:08;;;;;;;114.60;16.55;;;4.30;99.90;;;;;;6040007;23;92451;-74
2023/03/03 05:40:36;;;;;;;147.38;19.27;;;4.30;99.90;;;;;;6040755;23;93222;-74
2023/03/03 05:43:03;;;;;;;208.65;20.27;;;4.30;99.90;;;;;;6016384;23;103778;-74
2023/03/03 05:45:30;;;;;;;133.07;17.65;;;4.30;99.90;;;;;;6040286;23;92376;-74
2023/03/03 05:47:57;;;;;;;147.63;17.90;;;4.30;99.90;;;;;;6040617;23;92983;-74
2023/03/03 05:50:24;;;;;;;162.43;19.48;;;4.30;99.90;;;;;;6038681;23;95573;-74
2023/03/03 05:52:52;;;;;;;135.23;16.75;;;4.30;99.90;;;;;;6040378;23;95416;-74
2023/03/03 05:55:19;;;;;;;172.30;19.95;;;4.30;99.90;;;;;;6066098;23;92506;-74
2023/03/03 05:57:46;;;;;;;181.45;19.08;;;4.30;99.90;;;;;;6066318;23;92403;-74
2023/03/03 06:00:14;;;;;;;161.50;17.85;;;4.30;99.90;;;;;;6065207;23;106452;-74
2023/03/03 06:02:42;;;;;;;146.35;18.13;;;4.30;99.90;;;;;;6040470;23;92816;-74
2023/03/03 06:05:09;;;;;;;139.00;17.13;;;4.30;99.90;;;;;;6040117;23;92441;-74
2023/03/03 06:07:36;;;;;;;126.68;16.27;;;4.30;99.90;;;;;;6041079;23;91656;-73
2023/03/03 06:10:04;;;;;;;128.73;15.90;;;4.30;99.90;;;;;;6015932;23;95935;-73
2023/03/03 06:12:34;;;;;;;179.38;22.92;;;4.30;99.90;;;;;;6039848;23;95304;-74
2023/03/03 06:15:01;;;;;;;132.82;16.27;;;4.30;99.90;;;;;;6064892;23;95199;-74
2023/03/03 06:17:28;;;;;;;147.25;15.35;;;4.30;99.90;;;;;;6039958;23;92477;-74
2023/03/03 06:19:54;;;;;;;130.93;15.52;;;4.30;99.90;;;;;;6015881;23;95869;-74
2023/03/03 06:22:21;;;;;;;173.70;18.02;;;4.30;99.90;;;;;;6065730;23;92747;-74
2023/03/03 06:24:48;;;;;;;146.90;15.27;;;4.30;99.90;;;;;;6066244;23;92971;-73
2023/03/03 06:27:15;;;;;;;127.10;15.98;;;4.30;99.90;;;;;;6065351;23;92439;-74
2023/03/03 06:29:42;;;;;;;130.93;14.75;;;4.30;99.90;;;;;;6065940;23;93376;-74
2023/03/03 06:32:10;;;;;;;127.65;14.32;;;4.30;99.90;;;;;;6066331;23;93208;-74
2023/03/03 06:34:37;;;;;;;123.78;15.13;;;4.30;99.90;;;;;;6065460;23;95538;-73
2023/03/03 06:37:04;;;;;;;126.22;14.07;;;4.30;99.90;;;;;;6040090;23;92430;-73
2023/03/03 06:39:31;;;;;;;99.78;12.05;;;4.30;99.90;;;;;;6038120;23;98227;-73
2023/03/03 06:41:58;;;;;;;131.13;12.63;;;4.30;99.90;;;;;;6065370;23;96490;-73
2023/03/03 06:44:26;;;;;;;111.40;12.85;;;4.30;99.90;;;;;;6040303;23;92685;-73
2023/03/03 06:46:56;;;;;;;171.88;16.95;;;4.30;99.90;;;;;;6040793;23;92462;-74
2023/03/03 06:49:23;;;;;;;107.95;12.07;;;4.30;99.90;;;;;;6065525;23;93269;-74
2023/03/03 06:51:51;;;;;;;91.78;12.07;;;4.30;99.90;;;;;;6088834;23;95741;-73
2023/03/03 06:54:26;;;;;;;119.47;11.73;;;4.30;99.90;;;;;;6039986;23;93099;-73
2023/03/03 06:57:12;;;;;;;97.53;10.70;;;4.30;99.90;;;;;;6066565;23;91582;-73
2023/03/03 06:59:40;;;;;;;94.78;9.88;;;4.30;99.90;;;;;;6040224;23;93250;-74
2023/03/03 07:02:15;;;;;;;73.20;8.93;;;4.30;99.90;;;;;;6066574;23;92894;-73
2023/03/03 07:04:43;;;;;;;118.28;10.50;;;4.40;99.90;;;;;;6065120;23;94775;-74
2023/03/03 07:07:13;;;;;;;151.23;13.82;;;4.40;99.90;;;;;;6065741;23;94723;-73
2023/03/03 07:09:40;;;;;;;81.28;11.80;;;4.50;99.90;;;;;;6039615;23;95861;-73
2023/03/03 07:12:12;;;;;;;125.35;11.52;;;4.50;99.90;;;;;;6064126;23;94374;-74
2023/03/03 07:14:43;;;;;;;112.22;11.50;;;4.50;99.90;;;;;;6065942;23;92802;-73
2023/03/03 07:17:18;;;;;;;125.32;11.65;;;4.60;99.90;;;;;;6066208;23;92936;-73
2023/03/03 07:19:46;;;;;;;168.52;13.18;;;4.70;99.90;;;;;;6039485;23;95859;-73
2023/03/03 07:22:17;;;;;;;129.48;12.75;;;4.70;99.90;;;;;;6040483;23;93363;-73
2023/03/03 07:24:50;;;;;;;87.13;11.15;;;4.80;99.90;;;;;;6039820;23;92317;-73
2023/03/03 07:27:18;;;;;;;128.90;11.85;;;4.80;99.90;;;;;;6064037;23;92627;-73
2023/03/03 07:29:47;;;;;;;87.82;12.05;;;4.90;99.90;;;;;;6038187;23;95577;-73
2023/03/03 07:32:36;;;;;;;91.20;10.75;;;4.90;99.90;;;;;;6065500;23;95612;-74
2023/03/03 07:35:39;;;;;;;141.25;12.73;;;5.10;99.90;;;;;;6065964;23;92359;-73
2023/03/03 07:38:33;;;;;;;100.82;9.10;;;5.10;99.90;;;;;;6066009;23;93006;-73
2023/03/03 07:41:04;;;;;;;113.90;11.13;;;5.20;99.90;;;;;;6033762;23;95566;-74
2023/03/03 07:43:47;;;;;;;110.72;12.55;;;5.30;99.90;;;;;;6065356;23;94565;-73
2023/03/03 07:46:23;;;;;;;60.17;8.38;;;5.40;99.90;;;;;;6065927;23;92516;-74
2023/03/03 07:48:51;;;;;;;65.22;9.40;;;5.40;99.90;;;;;;6040925;23;91655;-73
2023/03/03 07:51:26;;;;;;;85.30;10.40;;;5.50;99.90;;;;;;6066204;23;93249;-74
2023/03/03 07:54:16;;;;;;;91.10;9.63;;;5.50;99.90;;;;;;6065558;23;92994;-73
2023/03/03 07:56:44;;;;;;;65.47;9.82;;;5.60;99.90;;;;;;6064627;23;94716;-73
2023/03/03 07:59:23;;;;;;;78.50;8.85;;;5.60;99.90;;;;;;6066384;23;92340;-73
2023/03/03 08:01:57;;;;;;;59.65;8.25;;;5.70;99.90;;;;;;6066206;23;94354;-73
2023/03/03 08:04:31;;;;;;;64.68;8.13;;;5.70;99.90;;;;;;6040673;23;92957;-73
2023/03/03 08:07:00;;;;;;;54.03;7.78;;;5.70;99.90;;;;;;6040885;23;92528;-73
2023/03/03 08:09:36;;;;;;;49.95;6.90;;;5.80;99.90;;;;;;6064379;23;92469;-73
2023/03/03 08:12:06;;;;;;;77.78;8.88;;;5.90;99.90;;;;;;6066211;23;93548;-73
2023/03/03 08:14:35;;;;;;;72.70;8.05;;;6.00;99.90;;;;;;6066252;23;98216;-74
2023/03/03 08:17:12;;;;;;;58.55;7.75;;;6.10;99.90;;;;;;6066415;23;92481;-73
2023/03/03 08:19:39;;;;;;;41.75;6.80;;;6.20;99.90;;;;;;6066372;23;92683;-74
2023/03/03 08:22:17;;;;;;;55.33;8.40;;;6.30;99.90;;;;;;6064769;23;95557;-73
2023/03/03 08:24:44;;;;;;;58.97;7.70;;;6.40;99.90;;;;;;6065815;23;95498;-73
2023/03/03 08:27:11;;;;;;;52.67;9.65;;;6.50;99.90;;;;;;6040252;23;92981;-74
2023/03/03 08:29:38;;;;;;;45.17;7.35;;;6.60;99.90;;;;;;6039937;23;92413;-73
2023/03/03 08:32:05;;;;;;;40.05;7.47;;;6.70;99.90;;;;;;6039581;23;104930;-73
2023/03/03 08:34:32;;;;;;;38.95;7.28;;;6.80;99.90;;;;;;6065814;23;93036;-74
2023/03/03 08:36:59;;;;;;;43.80;7.72;;;6.90;99.90;;;;;;6066641;23;92712;-73
2023/03/03 08:39:26;;;;;;;34.92;7.57;;;7.00;99.90;;;;;;6040555;23;91761;-73
2023/03/03 08:41:53;;;;;;;44.97;7.43;;;7.10;99.90;;;;;;6064144;23;93302;-73
2023/03/03 08:44:20;;;;;;;38.30;7.90;;;7.20;99.90;;;;;;6064500;23;93020;-73
2023/03/03 08:46:47;;;;;;;37.13;7.40;;;7.40;99.90;;;;;;6038344;23;97149;-73
2023/03/03 08:49:14;;;;;;;36.72;7.65;;;7.60;99.90;;;;;;6040010;23;92516;-73
2023/03/03 08:51:41;;;;;;;26.65;7.03;;;7.90;99.90;;;;;;6039869;23;92436;-74
2023/03/03 08:54:08;;;;;;;35.05;7.35;;;8.20;99.90;;;;;;6065944;23;92901;-73
2023/03/03 08:56:35;;;;;;;32.47;7.93;;;8.40;99.90;;;;;;6066091;23;92857;-73
2023/03/03 08:59:02;;;;;;;63.38;9.98;;;8.40;99.90;;;;;;6066045;23;92449;-73
2023/03/03 09:01:33;;;;;;;37.78;8.43;;;8.40;99.90;;;;;;6039530;23;93409;-74
2023/03/03 09:04:01;;;;;;;24.65;8.98;;;8.30;99.90;;;;;;6040305;23;95567;-74
2023/03/03 09:06:28;;;;;;;21.73;7.68;;;8.20;99.90;;;;;;6039911;23;98084;-73
2023/03/03 09:08:55;;;;;;;36.58;13.20;;;8.10;99.90;;;;;;6014580;23;101194;-73
2023/03/03 09:11:27;;;;;;;33.22;11.50;;;8.00;99.90;;;;;;6037933;23;95726;-74
2023/03/03 09:14:06;;;;;;;16.40;9.32;;;8.00;99.90;;;;;;6064738;23;95230;-73
2023/03/03 09:16:37;;;;;;;25.63;8.88;;;7.90;99.90;;;;;;6065986;23;92394;-73
2023/03/03 09:19:25;;;;;;;13.30;7.82;;;7.80;99.90;;;;;;6039902;23;92465;-73
2023/03/03 09:21:55;;;;;;;16.83;7.82;;;7.70;99.90;;;;;;6039382;23;95630;-73
2023/03/03 09:24:30;;;;;;;18.10;8.00;;;7.60;99.90;;;;;;6065717;23;92953;-73
2023/03/03 09:26:58;;;;;;;13.32;6.65;;;7.50;99.90;;;;;;6065477;23;92656;-73
2023/03/03 09:29:34;;;;;;;13.25;7.63;;;7.50;99.90;;;;;;6036605;23;92202;-74
2023/03/03 09:32:15;;;;;;;12.65;7.35;;;7.40;99.90;;;;;;6039286;23;95760;-73
2023/03/03 09:34:42;;;;;;;14.20;7.80;;;7.40;99.90;;;;;;6065461;23;92974;-74
2023/03/03 09:37:35;;;;;;;15.60;8.55;;;7.40;99.90;;;;;;6064425;23;94814;-73
2023/03/03 09:40:32;;;;;;;13.63;8.75;;;7.50;99.90;;;;;;6039342;23;92435;-73
2023/03/03 09:43:10;;;;;;;13.00;7.72;;;7.40;99.90;;;;;;6039490;23;93176;-74
2023/03/03 09:45:56;;;;;;;14.25;7.13;;;7.40;99.90;;;;;;6065488;23;92712;-74
2023/03/03 09:48:33;;;;;;;11.55;7.18;;;7.40;99.90;;;;;;6039893;23;92365;-73
2023/03/03 09:51:45;;;;;;;11.18;6.65;;;7.40;99.90;;;;;;6065472;23;92470;-74
2023/03/03 09:54:27;;;;;;;12.77;6.97;;;7.50;99.90;;;;;;6039337;23;93517;-73
2023/03/03 09:57:09;;;;;;;6.28;5.30;;;7.50;99.90;;;;;;6065580;23;92757;-74
2023/03/03 09:59:48;;;;;;;9.18;5.70;;;7.50;99.90;;;;;;6039407;23;92387;-74
2023/03/03 10:02:36;;;;;;;11.63;6.00;;;7.50;99.90;;;;;;6039767;23;92507;-74
2023/03/03 10:05:10;;;;;;;7.68;5.53;;;7.60;99.90;;;;;;6037572;23;95522;-74
2023/03/03 10:08:12;;;;;;;6.63;4.68;;;7.60;99.90;;;;;;6039048;23;96595;-74
2023/03/03 10:10:58;;;;;;;5.95;4.38;;;7.70;99.90;;;;;;6029399;23;92507;-74
2023/03/03 10:13:48;;;;;;;7.00;5.03;;;7.70;99.90;;;;;;6088322;23;92491;-74
2023/03/03 10:16:56;;;;;;;4.30;3.90;;;7.80;99.90;;;;;;6038711;23;95697;-74
2023/03/03 10:19:45;;;;;;;6.78;4.28;;;7.90;99.90;;;;;;6089373;23;93135;-74
2023/03/03 10:22:15;;;;;;;5.55;4.43;;;8.00;99.90;;;;;;6041368;23;92946;-74
2023/03/03 10:24:48;;;;;;;4.00;3.45;;;8.10;99.90;;;;;;6041230;23;91726;-74
2023/03/03 10:27:29;;;;;;;5.50;3.63;;;8.20;99.90;;;;;;6066712;23;93185;-74
2023/03/03 10:30:09;;;;;;;4.10;3.63;;;8.30;99.90;;;;;;6039895;23;94017;-74
2023/03/03 10:32:44;;;;;;;5.43;4.03;;;8.50;99.90;;;;;;6065543;23;94741;-74
2023/03/03 10:35:29;;;;;;;5.03;3.53;;;8.60;99.90;;;;;;6041032;23;92586;-74
2023/03/03 10:38:04;;;;;;;6.60;4.05;;;8.70;99.90;;;;;;6066546;23;93300;-74
2023/03/03 10:40:42;;;;;;;4.70;3.70;;;8.70;99.90;;;;;;6041142;23;93046;-74
2023/03/03 10:43:23;;;;;;;8.23;4.32;;;9.00;99.90;;;;;;6040679;23;92430;-74
2023/03/03 10:46:23;;;;;;;5.50;4.20;;;9.00;99.90;;;;;;6066570;23;92369;-74
2023/03/03 10:49:13;;;;;;;6.43;4.28;;;9.30;99.90;;;;;;6040759;23;93156;-74
2023/03/03 10:52:16;;;;;;;5.35;3.70;;;9.40;99.90;;;;;;6066978;23;92732;-74
2023/03/03 10:55:07;;;;;;;4.30;3.90;;;9.50;99.90;;;;;;6066891;23;92300;-73
2023/03/03 10:57:40;;;;;;;3.88;3.40;;;9.60;99.90;;;;;;6066498;23;92384;-74
2023/03/03 11:00:18;;;;;;;4.40;3.50;;;9.70;99.90;;;;;;6064799;23;96721;-74
2023/03/03 11:03:04;;;;;;;3.33;3.03;;;9.80;99.90;;;;;;6040075;23;97742;-74
2023/03/03 11:05:38;;;;;;;3.33;3.03;;;9.90;99.90;;;;;;6089402;23;92383;-74
2023/03/03 11:08:34;;;;;;;;;;;10.10;99.90;;;;;;6066567;23;92424;-73
2023/03/03 11:11:11;;;;;;;4.13;2.95;;;10.10;99.90;;;;;;6060247;23;92383;-72
2023/03/03 11:13:47;;;;;;;4.30;3.25;;;10.30;99.90;;;;;;6040738;23;95657;-72
2023/03/03 11:16:35;;;;;;;4.35;3.15;;;10.50;99.90;;;;;;6040833;23;92478;-75
2023/03/03 11:19:16;;;;;;;4.55;3.90;;;10.70;99.90;;;;;;6066880;23;91593;-74
2023/03/03 11:21:56;;;;;;;6.90;5.85;;;10.90;99.90;;;;;;6066697;23;93262;-73
2023/03/03 11:24:37;;;;;;;6.20;5.60;;;11.00;99.90;;;;;;6066583;23;92902;-73
2023/03/03 11:27:51;;;;;;;4.45;3.55;;;11.20;99.90;;;;;;6087352;23;94814;-73
2023/03/03 11:30:49;;;;;;;5.30;2.90;;;11.30;99.90;;;;;;5976935;23;93001;-73
2023/03/03 11:33:31;;;;;;;4.65;3.20;;;11.40;99.90;;;;;;6010976;23;95656;-73
2023/03/03 11:36:10;;;;;;;5.90;3.13;;;11.60;99.90;;;;;;6011300;23;95529;-73
2023/03/03 11:38:40;;;;;;;6.10;3.00;;;11.60;99.90;;;;;;6010723;23;92398;-73
2023/03/03 11:41:34;;;;;;;6.15;2.67;;;11.60;99.90;;;;;;6037144;23;92476;-73
2023/03/03 11:44:09;;;;;;;3.72;3.08;;;11.80;99.90;;;;;;6011695;23;93133;-73
2023/03/03 11:47:03;;;;;;;6.38;3.28;;;11.80;99.90;;;;;;6037486;23;92952;-74
2023/03/03 11:49:47;;;;;;;6.67;2.73;;;12.00;99.90;;;;;;5962234;23;93838;-73
2023/03/03 11:52:40;;;;;;;5.90;2.63;;;12.10;99.90;;;;;;6037053;23;92443;-73
2023/03/03 11:55:16;;;;;;;3.92;2.70;;;12.30;99.90;;;;;;6009476;23;98018;-73
2023/03/03 11:57:51;;;;;;;3.67;2.80;;;12.40;99.90;;;;;;6011120;23;97764;-73
2023/03/03 12:00:21;;;;;;;2.88;2.20;;;12.40;99.90;;;;;;6037158;23;92405;-73
2023/03/03 12:02:57;;;;;;;5.57;3.03;;;12.60;99.90;;;;;;6037320;23;92983;-73
2023/03/03 12:05:52;;;;;;;4.05;2.90;;;12.60;99.90;;;;;;6037157;23;93131;-73
2023/03/03 12:08:43;;;;;;;5.88;2.78;;;12.70;99.90;;;;;;6010990;23;95805;-73
2023/03/03 12:11:21;;;;;;;2.63;2.05;;;12.80;99.90;;;;;;6011141;23;92443;-73
2023/03/03 12:14:24;;;;;;;3.45;2.50;;;12.70;99.90;;;;;;6011824;23;91630;-73
2023/03/03 12:16:54;;;;;;;4.75;3.10;;;12.70;99.90;;;;;;5987772;23;95621;-73
2023/03/03 12:19:38;;;;;;;5.32;2.40;;;12.60;99.90;;;;;;6010796;23;95405;-73
2023/03/03 12:22:44;;;;;;;4.38;2.65;;;12.40;99.90;;;;;;6035578;23;94705;-73
2023/03/03 12:25:14;;;;;;;6.60;2.50;;;12.40;99.90;;;;;;6024735;23;92444;-73
2023/03/03 12:28:19;;;;;;;3.58;2.22;;;12.30;99.90;;;;;;6011581;23;93201;-73
2023/03/03 12:31:03;;;;;;;2.53;2.03;;;12.20;99.90;;;;;;6026871;23;93920;-73
2023/03/03 12:33:55;;;;;;;4.10;2.15;;;12.00;99.90;;;;;;6066458;23;92406;-74
2023/03/03 12:36:54;;;;;;;2.63;1.80;;;11.90;99.90;;;;;;6040497;23;92402;-74
2023/03/03 12:39:45;;;;;;;4.28;1.80;;;11.90;99.90;;;;;;6039064;23;95617;-73
2023/03/03 12:42:22;;;;;;;4.63;2.15;;;11.60;99.90;;;;;;6040521;23;92923;-73
2023/03/03 12:44:58;;;;;;;2.92;1.67;;;11.30;99.90;;;;;;6066355;23;92385;-73
2023/03/03 12:47:32;;;;;;;4.75;2.15;;;11.30;99.90;;;;;;6065980;23;92371;-73
2023/03/03 12:50:12;;;;;;;5.30;1.63;;;11.40;99.90;;;;;;6038602;23;98060;-73
2023/03/03 12:53:10;;;;;;;3.28;1.60;;;11.50;99.90;;;;;;6039746;23;97857;-74
2023/03/03 12:55:56;;;;;;;2.47;1.52;;;11.60;99.90;;;;;;6066240;23;92354;-73
2023/03/03 12:58:44;;;;;;;3.03;1.63;;;11.60;99.90;;;;;;6040023;23;92734;-73
2023/03/03 13:01:27;;;;;;;2.42;1.42;;;11.50;99.90;;;;;;6064037;23;94480;-73
2023/03/03 13:04:12;;;;;;;2.55;1.50;;;11.50;99.70;;;;;;6066082;23;92933;-73
2023/03/03 13:07:13;;;;;;;2.92;1.83;;;11.60;99.20;;;;;;6066368;23;92768;-73
2023/03/03 13:10:16;;;;;;;4.70;1.80;;;11.30;99.00;;;;;;6066391;23;91597;-73
2023/03/03 13:12:46;;;;;;;4.60;1.70;;;11.20;99.80;;;;;;6066081;23;93111;-73
2023/03/03 13:15:22;;;;;;;2.58;1.42;;;11.10;99.90;;;;;;6065528;23;92921;-73